createdAt,value
2018-03-29T00:01:45.739Z,54.50
2018-03-29T00:04:16.251Z,54.30
2018-03-29T00:06:45.919Z,54.30
2018-03-29T00:09:15.642Z,54.60
2018-03-29T00:11:47.152Z,54.40
2018-03-29T00:14:17.622Z,54.70
2018-03-29T00:16:47.275Z,54.80
2018-03-29T00:19:17.006Z,54.70
2018-03-29T00:21:47.424Z,55.30
2018-03-29T00:24:17.106Z,55.40
2018-03-29T00:26:46.914Z,55.10
2018-03-29T00:29:16.807Z,55.00
2018-03-29T00:31:46.647Z,55.50
2018-03-29T00:34:16.675Z,56.00
2018-03-29T00:36:46.643Z,55.60
2018-03-29T00:39:17.189Z,55.60
2018-03-29T00:41:47.049Z,55.60
2018-03-29T00:44:17.020Z,55.60
2018-03-29T00:46:46.808Z,55.40
2018-03-29T00:49:16.922Z,55.40
2018-03-29T00:51:46.729Z,55.80
2018-03-29T00:54:16.552Z,56.10
2018-03-29T00:56:46.237Z,56.70
2018-03-29T00:59:16.050Z,57.10
2018-03-29T01:01:45.670Z,56.70
2018-03-29T01:04:15.423Z,56.90
2018-03-29T01:06:45.060Z,56.60
2018-03-29T01:09:15.549Z,56.80
2018-03-29T01:11:45.177Z,56.80
2018-03-29T01:14:14.884Z,57.00
2018-03-29T01:16:44.529Z,57.10
2018-03-29T01:19:14.250Z,57.10
2018-03-29T01:21:43.966Z,56.60
2018-03-29T01:24:13.652Z,56.60
2018-03-29T01:26:43.415Z,56.90
2018-03-29T01:29:14.301Z,57.10
2018-03-29T01:31:45.610Z,57.30
2018-03-29T01:34:15.441Z,57.40
2018-03-29T01:36:45.192Z,57.70
2018-03-29T01:39:15.734Z,57.60
2018-03-29T01:41:45.470Z,57.70
2018-03-29T01:44:15.295Z,57.70
2018-03-29T01:46:45.067Z,57.50
2018-03-29T01:49:15.642Z,57.70
2018-03-29T01:51:45.352Z,57.70
2018-03-29T01:54:14.984Z,58.30
2018-03-29T01:56:45.602Z,59.70
2018-03-29T01:59:15.239Z,59.70
2018-03-29T02:01:45.309Z,59.20
2018-03-29T02:04:16.055Z,59.00
2018-03-29T02:06:45.687Z,59.10
2018-03-29T02:09:15.389Z,59.70
2018-03-29T02:11:45.081Z,58.70
2018-03-29T02:14:15.530Z,59.30
2018-03-29T02:16:45.218Z,59.40
2018-03-29T02:19:15.636Z,58.80
2018-03-29T02:21:46.190Z,58.90
2018-03-29T02:24:16.586Z,58.50
2018-03-29T02:26:46.467Z,58.60
2018-03-29T02:29:16.370Z,59.20
2018-03-29T02:31:46.101Z,59.40
2018-03-29T02:34:15.921Z,59.50
2018-03-29T02:36:45.892Z,59.50
2018-03-29T02:39:16.302Z,59.10
2018-03-29T02:41:46.040Z,59.30
2018-03-29T02:44:16.699Z,59.40
2018-03-29T02:46:46.334Z,59.40
2018-03-29T02:49:16.041Z,59.60
2018-03-29T02:51:45.971Z,59.30
2018-03-29T02:54:15.738Z,59.10
2018-03-29T02:56:46.201Z,59.40
2018-03-29T02:59:16.952Z,60.00
2018-03-29T03:01:46.620Z,60.00
2018-03-29T03:04:17.146Z,60.80
2018-03-29T03:06:46.775Z,61.00
2018-03-29T03:09:16.482Z,60.20
2018-03-29T03:11:46.903Z,60.00
2018-03-29T03:14:17.389Z,60.40
2018-03-29T03:16:47.112Z,60.50
2018-03-29T03:19:16.791Z,60.60
2018-03-29T03:21:46.523Z,60.20
2018-03-29T03:24:16.190Z,60.50
2018-03-29T03:26:46.649Z,61.50
2018-03-29T03:29:16.361Z,61.00
2018-03-29T03:31:46.023Z,61.00
2018-03-29T03:34:15.766Z,61.30
2018-03-29T03:36:46.249Z,61.20
2018-03-29T03:39:15.879Z,61.30
2018-03-29T03:41:46.463Z,61.70
2018-03-29T03:44:16.144Z,61.90
2018-03-29T03:46:46.626Z,62.10
2018-03-29T03:49:16.502Z,62.20
2018-03-29T03:51:46.978Z,61.70
2018-03-29T03:54:16.868Z,61.90
2018-03-29T03:56:46.769Z,62.30
2018-03-29T03:59:17.213Z,62.30
2018-03-29T04:01:46.984Z,62.40
2018-03-29T04:04:17.690Z,62.20
2018-03-29T04:06:48.299Z,62.80
2018-03-29T04:09:18.036Z,62.90
2018-03-29T04:11:48.803Z,63.10
2018-03-29T04:14:18.597Z,63.30
2018-03-29T04:16:48.384Z,63.50
2018-03-29T04:19:18.044Z,62.60
2018-03-29T04:21:47.738Z,62.70
2018-03-29T04:24:18.479Z,62.40
2018-03-29T04:26:48.148Z,62.60
2018-03-29T04:29:18.605Z,61.60
2018-03-29T04:31:48.414Z,61.70
2018-03-29T04:34:18.049Z,61.10
2018-03-29T04:36:48.810Z,61.50
2018-03-29T04:39:19.551Z,62.00
2018-03-29T04:41:49.218Z,62.20
2018-03-29T04:44:19.006Z,59.00
2018-03-29T04:46:49.696Z,62.90
2018-03-29T04:49:19.565Z,63.20
2018-03-29T04:51:49.949Z,62.50
2018-03-29T04:54:19.693Z,62.70
2018-03-29T04:56:50.072Z,62.80
2018-03-29T04:59:20.787Z,62.60
2018-03-29T05:01:50.471Z,62.70
2018-03-29T05:04:20.192Z,62.20
2018-03-29T05:06:50.590Z,63.10
2018-03-29T05:09:20.305Z,63.30
2018-03-29T05:11:49.927Z,63.20
2018-03-29T05:14:19.623Z,63.20
2018-03-29T05:16:49.254Z,63.00
2018-03-29T05:19:18.933Z,63.00
2018-03-29T05:21:49.329Z,63.60
2018-03-29T05:24:18.993Z,63.90
2018-03-29T05:26:49.625Z,64.20
2018-03-29T05:29:19.358Z,64.10
2018-03-29T05:31:49.062Z,64.00
2018-03-29T05:34:18.729Z,64.30
2018-03-29T05:36:48.401Z,63.90
2018-03-29T05:39:18.070Z,63.70
2018-03-29T05:41:47.710Z,63.90
2018-03-29T05:44:19.051Z,64.10
2018-03-29T05:46:48.681Z,64.30
2018-03-29T05:49:18.737Z,63.60
2018-03-29T05:51:49.205Z,63.80
2018-03-29T05:54:19.757Z,63.90
2018-03-29T05:56:49.505Z,64.10
2018-03-29T05:59:19.893Z,64.30
2018-03-29T06:01:49.869Z,64.40
2018-03-29T06:04:19.472Z,64.60
2018-03-29T06:06:49.918Z,64.50
2018-03-29T06:09:19.534Z,64.70
2018-03-29T06:11:49.203Z,65.40
2018-03-29T06:14:18.941Z,64.70
2018-03-29T06:16:49.491Z,65.40
2018-03-29T06:19:19.113Z,65.70
2018-03-29T06:21:49.066Z,65.10
2018-03-29T06:24:18.841Z,65.10
2018-03-29T06:26:48.535Z,65.30
2018-03-29T06:29:18.158Z,65.00
2018-03-29T06:31:47.859Z,64.80
2018-03-29T06:34:18.281Z,65.10
2018-03-29T06:36:48.741Z,64.80
2018-03-29T06:39:18.434Z,65.10
2018-03-29T06:41:48.179Z,64.80
2018-03-29T06:44:18.651Z,64.30
2018-03-29T06:46:49.209Z,64.00
2018-03-29T06:49:18.934Z,64.20
2018-03-29T06:51:48.873Z,63.90
2018-03-29T06:54:18.689Z,63.90
2018-03-29T06:56:49.385Z,63.20
2018-03-29T06:59:19.868Z,63.20
2018-03-29T07:01:52.115Z,63.10
2018-03-29T07:04:21.852Z,63.20
2018-03-29T07:06:53.354Z,62.80
2018-03-29T07:09:23.838Z,62.00
2018-03-29T07:11:54.608Z,62.20
2018-03-29T07:14:25.914Z,61.40
2018-03-29T07:16:55.699Z,61.40
2018-03-29T07:19:25.524Z,60.90
2018-03-29T07:21:55.250Z,60.80
2018-03-29T07:24:25.280Z,60.70
2018-03-29T07:26:55.036Z,60.20
2018-03-29T07:29:24.851Z,59.80
2018-03-29T07:31:54.592Z,59.50
2018-03-29T07:34:25.280Z,59.50
2018-03-29T07:36:55.352Z,58.80
2018-03-29T07:39:25.820Z,58.20
2018-03-29T07:41:55.568Z,58.20
2018-03-29T07:44:26.192Z,57.40
2018-03-29T07:46:55.994Z,56.80
2018-03-29T07:49:25.800Z,56.70
2018-03-29T07:51:56.635Z,55.90
2018-03-29T07:54:26.773Z,55.60
2018-03-29T07:56:56.716Z,55.30
2018-03-29T07:59:26.494Z,54.30
2018-03-29T08:01:57.229Z,52.40
2018-03-29T08:04:28.138Z,51.70
2018-03-29T08:06:58.645Z,50.10
2018-03-29T08:09:28.447Z,50.00
2018-03-29T08:11:58.208Z,48.60
2018-03-29T08:14:27.934Z,48.40
2018-03-29T08:16:57.709Z,48.70
2018-03-29T08:19:28.224Z,48.70
2018-03-29T08:21:57.939Z,47.90
2018-03-29T08:24:27.723Z,47.60
2018-03-29T08:26:57.438Z,47.70
2018-03-29T08:29:27.267Z,47.40
2018-03-29T08:31:56.969Z,46.00
2018-03-29T08:34:27.916Z,46.10
2018-03-29T08:36:57.763Z,46.10
2018-03-29T08:39:27.550Z,46.00
2018-03-29T08:41:57.595Z,44.00
2018-03-29T08:44:27.870Z,45.60
2018-03-29T08:46:57.639Z,46.10
2018-03-29T08:49:27.386Z,44.70
2018-03-29T08:51:57.904Z,43.20
2018-03-29T08:54:27.654Z,43.10
2018-03-29T08:56:57.861Z,44.50
2018-03-29T08:59:28.604Z,43.50
2018-03-29T09:01:59.155Z,43.10
2018-03-29T09:04:29.015Z,43.00
2018-03-29T09:07:01.083Z,43.10
2018-03-29T09:09:30.902Z,42.90
2018-03-29T09:12:00.728Z,42.10
2018-03-29T09:14:31.448Z,42.40
2018-03-29T09:17:01.396Z,41.70
2018-03-29T09:19:32.002Z,42.50
2018-03-29T09:22:01.765Z,42.50
2018-03-29T09:24:33.408Z,42.40
2018-03-29T09:27:03.260Z,41.80
2018-03-29T09:29:34.849Z,41.10
2018-03-29T09:32:04.895Z,41.10
2018-03-29T09:34:35.513Z,40.80
2018-03-29T09:37:08.171Z,39.70
2018-03-29T09:39:38.171Z,39.60
2018-03-29T09:42:10.481Z,39.10
2018-03-29T09:44:41.860Z,39.00
2018-03-29T09:47:12.477Z,38.20
2018-03-29T09:49:44.156Z,39.00
2018-03-29T09:52:14.129Z,38.80
2018-03-29T09:54:45.192Z,37.80
2018-03-29T09:57:15.157Z,38.10
2018-03-29T09:59:44.865Z,37.40
2018-03-29T10:02:19.568Z,37.60
2018-03-29T10:04:55.344Z,36.70
2018-03-29T10:07:31.520Z,35.60
2018-03-29T10:10:01.206Z,35.60
2018-03-29T10:12:32.832Z,36.30
2018-03-29T10:15:02.811Z,36.30
2018-03-29T10:17:32.731Z,36.20
2018-03-29T10:20:02.470Z,36.40
2018-03-29T10:22:32.384Z,35.70
2018-03-29T10:25:02.139Z,35.10
2018-03-29T10:27:32.706Z,36.20
2018-03-29T10:30:02.571Z,36.10
2018-03-29T10:32:33.194Z,36.60
2018-03-29T10:35:03.081Z,36.40
2018-03-29T10:37:32.859Z,35.90
2018-03-29T10:40:03.514Z,35.00
2018-03-29T10:42:33.296Z,34.90
2018-03-29T10:45:03.169Z,35.50
2018-03-29T10:47:33.900Z,35.80
2018-03-29T10:50:03.830Z,35.90
2018-03-29T10:52:34.021Z,35.10
2018-03-29T10:55:03.987Z,35.90
2018-03-29T10:57:33.736Z,35.80
2018-03-29T11:00:03.501Z,35.60
2018-03-29T11:02:33.139Z,36.10
2018-03-29T11:05:02.839Z,36.10
2018-03-29T11:07:33.451Z,34.30
2018-03-29T11:10:03.097Z,34.40
2018-03-29T11:12:33.175Z,35.20
2018-03-29T11:15:02.944Z,34.40
2018-03-29T11:17:35.993Z,34.30
2018-03-29T11:20:06.733Z,34.10
2018-03-29T11:22:36.582Z,34.20
2018-03-29T11:25:07.317Z,34.30
2018-03-29T11:27:38.545Z,33.80
2018-03-29T11:30:08.423Z,33.20
2018-03-29T11:32:38.937Z,34.50
2018-03-29T11:35:08.625Z,34.40
2018-03-29T11:37:38.314Z,33.50
2018-03-29T11:40:08.228Z,34.40
2018-03-29T11:42:38.494Z,33.80
2018-03-29T11:45:08.301Z,33.60
2018-03-29T11:47:38.110Z,33.50
2018-03-29T11:50:07.851Z,32.30
2018-03-29T11:52:37.569Z,32.40
2018-03-29T11:55:07.363Z,31.60
2018-03-29T11:57:37.106Z,32.50
2018-03-29T12:00:07.626Z,33.00
2018-03-29T12:02:37.441Z,32.80
2018-03-29T12:05:07.321Z,32.10
2018-03-29T12:07:37.367Z,33.10
2018-03-29T12:10:07.259Z,31.90
2018-03-29T12:12:36.873Z,31.70
2018-03-29T12:15:06.863Z,31.60
2018-03-29T12:17:36.567Z,30.50
2018-03-29T12:20:07.235Z,31.00
2018-03-29T12:22:36.858Z,31.00
2018-03-29T12:25:06.551Z,30.20
2018-03-29T12:27:36.185Z,30.00
2018-03-29T12:30:06.893Z,29.70
2018-03-29T12:32:36.522Z,29.70
2018-03-29T12:35:06.456Z,29.70
2018-03-29T12:37:36.073Z,29.30
2018-03-29T12:40:05.759Z,29.50
2018-03-29T12:42:35.437Z,29.20
2018-03-29T12:45:05.889Z,28.60
2018-03-29T12:47:35.975Z,28.40
2018-03-29T12:50:05.594Z,29.10
2018-03-29T12:52:36.082Z,28.50
2018-03-29T12:55:23.481Z,28.40
2018-03-29T12:58:07.969Z,28.30
2018-03-29T13:00:37.878Z,28.20
2018-03-29T13:03:07.588Z,28.50
2018-03-29T13:05:37.228Z,29.10
2018-03-29T13:08:06.957Z,28.50
2018-03-29T13:10:37.433Z,27.40
2018-03-29T13:13:07.086Z,27.30
2018-03-29T13:15:36.770Z,27.80
2018-03-29T13:18:06.432Z,28.00
2018-03-29T13:20:36.917Z,29.00
2018-03-29T13:23:06.557Z,29.00
2018-03-29T13:25:36.315Z,28.80
2018-03-29T13:28:06.022Z,28.90
2018-03-29T13:30:35.798Z,28.70
2018-03-29T13:33:05.507Z,28.90
2018-03-29T13:35:35.189Z,28.70
2018-03-29T13:38:05.910Z,27.70
2018-03-29T13:40:35.624Z,27.70
2018-03-29T13:43:05.277Z,27.30
2018-03-29T13:45:34.954Z,27.90
2018-03-29T13:48:04.610Z,27.60
2018-03-29T13:50:34.407Z,28.30
2018-03-29T13:53:04.029Z,28.40
2018-03-29T13:55:33.737Z,28.30
2018-03-29T13:58:03.365Z,29.20
2018-03-29T14:00:33.054Z,29.00
2018-03-29T14:03:02.765Z,28.80
2018-03-29T14:05:32.383Z,28.80
2018-03-29T14:08:02.144Z,29.30
2018-03-29T14:10:32.531Z,29.80
2018-03-29T14:13:02.214Z,29.80
2018-03-29T14:15:31.979Z,30.40
2018-03-29T14:18:01.736Z,30.30
2018-03-29T14:20:31.356Z,31.10
2018-03-29T14:23:01.034Z,31.60
2018-03-29T14:25:31.433Z,30.20
2018-03-29T14:28:01.205Z,30.20
2018-03-29T14:30:30.823Z,31.20
2018-03-29T14:33:00.518Z,31.40
2018-03-29T14:35:30.117Z,31.20
2018-03-29T14:37:59.855Z,31.30
2018-03-29T14:40:29.487Z,32.10
2018-03-29T14:42:59.170Z,31.60
2018-03-29T14:45:28.787Z,31.30
2018-03-29T14:47:58.816Z,32.10
2018-03-29T14:50:28.871Z,32.10
2018-03-29T14:52:59.405Z,31.10
2018-03-29T14:55:29.067Z,31.10
2018-03-29T14:57:58.670Z,30.70
2018-03-29T15:00:28.359Z,29.80
2018-03-29T15:02:58.064Z,28.70
2018-03-29T15:05:27.661Z,29.50
2018-03-29T15:07:57.371Z,29.80
2018-03-29T15:10:26.977Z,29.90
2018-03-29T15:12:56.966Z,30.10
2018-03-29T15:15:26.573Z,29.90
2018-03-29T15:17:56.242Z,29.10
2018-03-29T15:20:25.854Z,29.10
2018-03-29T15:22:55.549Z,29.30
2018-03-29T15:25:25.513Z,30.00
2018-03-29T15:27:55.946Z,30.80
2018-03-29T15:30:26.413Z,31.30
2018-03-29T15:32:56.006Z,31.20
2018-03-29T15:35:25.685Z,31.90
2018-03-29T15:37:56.060Z,32.00
2018-03-29T15:40:25.722Z,31.90
2018-03-29T15:42:55.377Z,31.90
2018-03-29T15:45:25.060Z,32.10
2018-03-29T15:47:55.513Z,32.80
2018-03-29T15:50:25.225Z,32.70
2018-03-29T15:52:54.960Z,33.00
2018-03-29T15:55:24.641Z,33.20
2018-03-29T15:57:55.134Z,33.00
2018-03-29T16:00:24.807Z,33.00
2018-03-29T16:02:54.932Z,33.20
2018-03-29T16:05:24.745Z,32.90
2018-03-29T16:07:54.403Z,33.00
2018-03-29T16:10:24.045Z,32.80
2018-03-29T16:12:54.389Z,32.80
2018-03-29T16:15:24.317Z,32.80
2018-03-29T16:17:54.247Z,33.10
2018-03-29T16:20:24.925Z,33.50
2018-03-29T16:22:54.566Z,33.50
2018-03-29T16:25:24.157Z,33.80
2018-03-29T16:27:53.965Z,34.30
2018-03-29T16:30:23.572Z,34.60
2018-03-29T16:32:53.395Z,34.80
2018-03-29T16:35:23.193Z,35.00
2018-03-29T16:37:54.135Z,35.20
2018-03-29T16:40:25.051Z,35.20
2018-03-29T16:42:56.105Z,35.60
2018-03-29T16:45:26.970Z,35.60
2018-03-29T16:47:56.991Z,35.70
2018-03-29T16:50:26.750Z,36.00
2018-03-29T16:52:56.465Z,35.80
2018-03-29T16:55:26.286Z,36.50
2018-03-29T16:57:56.249Z,36.70
2018-03-29T17:00:26.134Z,36.80
2018-03-29T17:02:56.001Z,37.00
2018-03-29T17:05:26.737Z,37.40
2018-03-29T17:07:56.644Z,37.40
2018-03-29T17:10:27.157Z,37.20
2018-03-29T17:12:57.065Z,37.10
2018-03-29T17:15:27.802Z,37.90
2018-03-29T17:17:57.611Z,37.20
2018-03-29T17:20:29.350Z,37.50
2018-03-29T17:22:59.184Z,37.70
2018-03-29T17:25:28.873Z,38.00
2018-03-29T17:27:58.667Z,38.40
2018-03-29T17:30:29.067Z,39.20
2018-03-29T17:32:58.825Z,38.60
2018-03-29T17:35:29.252Z,39.20
2018-03-29T17:37:59.702Z,39.50
2018-03-29T17:40:29.320Z,39.50
2018-03-29T17:42:58.982Z,39.70
2018-03-29T17:45:28.716Z,39.80
2018-03-29T17:47:58.407Z,40.20
2018-03-29T17:50:28.077Z,40.10
2018-03-29T17:52:58.022Z,40.30
2018-03-29T17:55:27.626Z,40.50
2018-03-29T17:57:57.297Z,40.80
2018-03-29T18:00:26.932Z,40.90
2018-03-29T18:02:56.588Z,41.00
2018-03-29T18:05:26.260Z,41.30
2018-03-29T18:07:56.932Z,41.70
2018-03-29T18:10:26.597Z,41.70
2018-03-29T18:12:57.425Z,41.90
2018-03-29T18:15:27.127Z,42.00
2018-03-29T18:17:56.829Z,42.60
2018-03-29T18:20:27.254Z,42.40
2018-03-29T18:22:57.696Z,42.50
2018-03-29T18:25:28.086Z,43.00
2018-03-29T18:27:58.046Z,43.00
2018-03-29T18:30:28.636Z,43.30
2018-03-29T18:32:59.178Z,43.50
2018-03-29T18:35:28.928Z,43.40
2018-03-29T18:37:59.389Z,43.80
2018-03-29T18:40:29.218Z,43.70
2018-03-29T18:42:58.955Z,43.80
2018-03-29T18:45:28.680Z,44.10
2018-03-29T18:47:58.490Z,44.00
2018-03-29T18:50:28.112Z,44.40
2018-03-29T18:52:57.835Z,44.30
2018-03-29T18:55:28.288Z,44.50
2018-03-29T18:57:58.233Z,44.50
2018-03-29T19:00:28.314Z,44.80
2018-03-29T19:02:58.321Z,44.90
2018-03-29T19:05:27.999Z,45.60
2018-03-29T19:07:57.630Z,45.50
2018-03-29T19:10:27.328Z,45.30
2018-03-29T19:12:57.031Z,45.50
2018-03-29T19:15:26.709Z,45.90
2018-03-29T19:17:56.631Z,46.20
2018-03-29T19:20:27.182Z,46.20
2018-03-29T19:22:56.856Z,46.30
2018-03-29T19:25:27.395Z,46.70
2018-03-29T19:27:57.783Z,46.80
2018-03-29T19:30:27.772Z,46.80
2018-03-29T19:32:57.417Z,46.90
2018-03-29T19:35:27.138Z,47.10
2018-03-29T19:37:56.821Z,47.20
2018-03-29T19:40:26.808Z,47.10
2018-03-29T19:42:57.252Z,47.70
2018-03-29T19:45:27.048Z,47.50
2018-03-29T19:47:56.783Z,47.70
2018-03-29T19:50:26.638Z,47.70
2018-03-29T19:52:56.328Z,47.70
2018-03-29T19:55:26.202Z,47.80
2018-03-29T19:57:56.586Z,48.20
2018-03-29T20:00:27.145Z,48.20
2018-03-29T20:02:56.959Z,48.20
2018-03-29T20:05:26.743Z,48.40
2018-03-29T20:07:56.480Z,48.50
2018-03-29T20:10:26.146Z,48.80
2018-03-29T20:12:55.859Z,48.90
2018-03-29T20:15:25.605Z,48.90
2018-03-29T20:17:56.462Z,49.60
2018-03-29T20:20:26.556Z,49.60
2018-03-29T20:22:56.925Z,50.00
2018-03-29T20:25:27.472Z,50.00
2018-03-29T20:27:58.679Z,50.10
2018-03-29T20:30:28.455Z,50.10
2018-03-29T20:32:58.255Z,50.00
2018-03-29T20:35:27.994Z,50.00
2018-03-29T20:37:57.742Z,49.90
2018-03-29T20:40:28.681Z,50.90
2018-03-29T20:42:58.647Z,50.40
2018-03-29T20:45:29.252Z,50.50
2018-03-29T20:47:59.117Z,50.50
2018-03-29T20:50:29.107Z,50.50
2018-03-29T20:53:00.699Z,50.60
2018-03-29T20:55:30.411Z,50.60
2018-03-29T20:58:00.259Z,50.60
2018-03-29T21:00:30.256Z,50.50
2018-03-29T21:03:00.101Z,50.70
2018-03-29T21:05:30.795Z,51.20
2018-03-29T21:08:00.528Z,50.80
2018-03-29T21:10:31.285Z,50.90
2018-03-29T21:13:01.020Z,50.80
2018-03-29T21:15:30.854Z,50.90
2018-03-29T21:18:01.398Z,51.30
2018-03-29T21:20:31.910Z,51.40
2018-03-29T21:23:02.376Z,51.10
2018-03-29T21:25:32.236Z,51.60
2018-03-29T21:28:02.057Z,51.70
2018-03-29T21:30:31.795Z,51.90
2018-03-29T21:33:02.475Z,52.20
2018-03-29T21:35:32.196Z,52.20
2018-03-29T21:38:02.090Z,52.40
2018-03-29T21:40:32.603Z,52.80
2018-03-29T21:43:02.412Z,52.80
2018-03-29T21:45:33.866Z,53.10
2018-03-29T21:48:04.391Z,53.40
2018-03-29T21:50:34.282Z,53.30
2018-03-29T21:53:04.258Z,53.90
2018-03-29T21:55:34.200Z,53.70
2018-03-29T21:58:04.237Z,53.80
2018-03-29T22:00:39.722Z,53.70
2018-03-29T22:03:10.216Z,54.30
2018-03-29T22:05:40.938Z,54.40
2018-03-29T22:08:10.805Z,54.40
2018-03-29T22:10:42.301Z,54.40
2018-03-29T22:13:12.122Z,54.50
2018-03-29T22:15:42.333Z,54.70
2018-03-29T22:18:12.095Z,55.00
2018-03-29T22:20:41.873Z,54.70
2018-03-29T22:23:11.751Z,54.80
2018-03-29T22:25:41.482Z,54.60
2018-03-29T22:28:11.269Z,54.60
2018-03-29T22:30:41.802Z,55.10
2018-03-29T22:33:11.576Z,55.10
2018-03-29T22:35:42.291Z,55.60
2018-03-29T22:38:13.773Z,55.60
2018-03-29T22:40:43.641Z,55.70
2018-03-29T22:43:13.404Z,55.80
2018-03-29T22:45:44.232Z,55.90
2018-03-29T22:48:15.038Z,56.00
2018-03-29T22:50:44.818Z,56.00
2018-03-29T22:53:14.465Z,56.00
2018-03-29T22:55:44.964Z,56.40
2018-03-29T22:58:14.624Z,56.50
2018-03-29T23:00:44.333Z,56.40
2018-03-29T23:03:13.974Z,56.60
2018-03-29T23:05:43.660Z,56.80
2018-03-29T23:08:13.345Z,57.20
2018-03-29T23:10:43.007Z,57.20
2018-03-29T23:13:12.691Z,56.90
2018-03-29T23:15:43.114Z,57.50
2018-03-29T23:18:13.547Z,58.10
2018-03-29T23:20:43.966Z,58.00
2018-03-29T23:23:14.428Z,58.10
2018-03-29T23:25:44.112Z,58.20
2018-03-29T23:28:14.515Z,58.80
2018-03-29T23:30:44.245Z,59.00
2018-03-29T23:33:13.903Z,59.00
2018-03-29T23:35:43.567Z,59.20
2018-03-29T23:38:13.178Z,59.40
2018-03-29T23:40:42.880Z,59.80
2018-03-29T23:43:12.485Z,59.90
2018-03-29T23:45:42.231Z,59.90
2018-03-29T23:48:12.660Z,60.20
2018-03-29T23:50:43.041Z,60.30
2018-03-29T23:53:12.703Z,60.30
2018-03-29T23:55:43.056Z,61.30
2018-03-29T23:58:18.932Z,61.00
